Burnet, TX

12:46 PM CST on January 17, 2017 (GMT -0600)
Bauer Farms | | Change Station

Elev 1476 ft 30.77 °N, 98.26 °W | Updated 5 minutes ago

Light Rain
Light Rain
46.9 °F
Feels Like 44 °F
N
6.8
Wind Variable Wind from NNW

Today
High -- | Low -- °F
--% Chance of Precip.
Yesterday
High -- | Low -- °F
Precip. -- in
Pressure 30.15 in
Visibility 10.0 miles
Clouds Few 3100 ft
Mostly Cloudy 4800 ft
Overcast 8000 ft
Windchill 44 °F
Dew Point 43 °F
Humidity 85%
Rainfall in
Snow Depth Not available.
7:30 AM 5:55 PM
Waning Gibbous, 70% visible
METAR KBMQ 171753Z AUTO 03009G17KT 10SM -RA FEW031 BKN048 OVC080 08/06 A3016 RMK AO2 LTG DSNT NE RAB1659 SLP209 P0001 60002 T00830061 10117 20083 50007
Pressure 30.15 in
Visibility 10.0 miles
Clouds Few 3100 ft
Mostly Cloudy 4800 ft
Overcast 8000 ft
Windchill 44 °F
Dew Point 43 °F
Humidity 85%
Rainfall in
Snow Depth Not available.
7:30 AM 5:55 PM
Waning Gibbous, 70% visible
METAR KBMQ 171753Z AUTO 03009G17KT 10SM -RA FEW031 BKN048 OVC080 08/06 A3016 RMK AO2 LTG DSNT NE RAB1659 SLP209 P0001 60002 T00830061 10117 20083 50007

Get Your Daily Forecast Email!

Thanks for signing up!

Be on the lookout for a verification email in your inbox.

You'll start receiving the daily forecast at 8 AM.

×

10-Day Weather Forecast

Almanac

Astronomy

Jan. 17, 2017 Rise Set
Actual Time
Civil Twilight
Nautical Twilight
Astronomical Twilight
Moon
Length of Visible Light
Length of Day
Tomorrow will be .
, % of the Moon is Illuminated

Today's Extremes

State Highs State Lows

Community

WunderPhotos

Upload Photos

1,962,540 photos uploaded!

WunderBlog® & News

Nearby

Air Quality

  Air Quality AQ Index Pollutant
Not available.

Snow Depth

Station Depth Elevation

Earthquake Activity

City Distance Mag. Time & Date
Minimum magnitude displayed is 2.5.

Coastal Water Temperatures

Place Temperature

Stations

Nearby Weather Stations

Station Location Temp. Windchill Dew Point Humidity Wind Precip. Elev Updated Type
                   

Watches & Warnings

There are currently no watches in effect.